createdAt,value
2023-04-20T00:00:27.628Z,9.70
2023-04-20T00:02:50.526Z,9.66
2023-04-20T00:05:13.654Z,9.70
2023-04-20T00:07:36.881Z,9.79
2023-04-20T00:09:59.793Z,9.82
2023-04-20T00:12:22.439Z,9.77
2023-04-20T00:14:45.055Z,9.72
2023-04-20T00:17:08.025Z,9.76
2023-04-20T00:19:33.374Z,9.77
2023-04-20T00:21:56.391Z,9.79
2023-04-20T00:24:19.235Z,9.89
2023-04-20T00:26:41.941Z,9.83
2023-04-20T00:29:04.846Z,9.89
2023-04-20T00:31:28.196Z,9.93
2023-04-20T00:33:51.041Z,9.94
2023-04-20T00:36:13.659Z,10.00
2023-04-20T00:38:36.521Z,10.07
2023-04-20T00:40:59.386Z,10.05
2023-04-20T00:43:22.722Z,10.00
2023-04-20T00:45:47.303Z,10.05
2023-04-20T00:48:10.251Z,10.10
2023-04-20T00:50:34.562Z,10.04
2023-04-20T00:52:58.479Z,10.07
2023-04-20T00:55:22.513Z,10.05
2023-04-20T00:57:45.122Z,9.98
2023-04-20T01:00:08.600Z,9.86
2023-04-20T01:02:31.582Z,9.91
2023-04-20T01:04:55.591Z,10.00
2023-04-20T01:07:18.181Z,9.91
2023-04-20T01:10:01.980Z,9.89
2023-04-20T01:12:24.758Z,9.82
2023-04-20T01:14:47.444Z,9.77
2023-04-20T01:17:10.036Z,9.67
2023-04-20T01:19:33.445Z,9.62
2023-04-20T01:21:58.115Z,9.52
2023-04-20T01:24:20.822Z,9.43
2023-04-20T01:26:43.472Z,9.22
2023-04-20T01:29:06.583Z,9.14
2023-04-20T01:31:29.293Z,9.15
2023-04-20T01:33:53.983Z,9.10
2023-04-20T01:36:16.800Z,9.04
2023-04-20T01:38:41.317Z,8.91
2023-04-20T01:41:06.852Z,8.79
2023-04-20T01:43:29.679Z,8.66
2023-04-20T01:45:52.420Z,8.52
2023-04-20T01:48:15.135Z,8.46
2023-04-20T01:50:38.207Z,8.35
2023-04-20T01:53:01.120Z,8.24
2023-04-20T01:55:23.694Z,8.16
2023-04-20T01:57:48.462Z,8.14
2023-04-20T02:00:13.007Z,8.09
2023-04-20T02:02:38.275Z,7.98
2023-04-20T02:05:01.175Z,7.95
2023-04-20T02:07:23.804Z,7.91
2023-04-20T02:09:46.963Z,7.84
2023-04-20T02:12:09.630Z,7.81
2023-04-20T02:14:35.338Z,7.76
2023-04-20T02:16:59.353Z,7.71
2023-04-20T02:19:22.343Z,7.64
2023-04-20T02:21:44.953Z,7.64
2023-04-20T02:24:07.793Z,7.56
2023-04-20T02:26:30.643Z,7.59
2023-04-20T02:28:53.599Z,7.76
2023-04-20T02:31:16.818Z,7.70
2023-04-20T02:33:41.136Z,7.76
2023-04-20T02:36:03.955Z,7.77
2023-04-20T02:38:28.351Z,7.78
2023-04-20T02:40:51.650Z,7.84
2023-04-20T02:43:14.911Z,7.88
2023-04-20T02:45:37.650Z,7.84
2023-04-20T02:48:00.908Z,7.84
2023-04-20T02:50:26.835Z,7.85
2023-04-20T02:53:02.410Z,7.97
2023-04-20T02:55:28.056Z,7.95
2023-04-20T02:57:53.824Z,7.94
2023-04-20T03:00:20.442Z,7.84
2023-04-20T03:02:56.289Z,7.80
2023-04-20T03:05:20.066Z,7.83
2023-04-20T03:07:43.727Z,7.73
2023-04-20T03:10:09.140Z,7.76
2023-04-20T03:12:54.675Z,7.67
2023-04-20T03:15:30.887Z,7.70
2023-04-20T03:17:58.489Z,7.74
2023-04-20T03:20:21.285Z,7.64
2023-04-20T03:22:44.126Z,7.69
2023-04-20T03:25:07.812Z,7.67
2023-04-20T03:27:49.024Z,7.56
2023-04-20T03:30:12.640Z,7.50
2023-04-20T03:32:35.536Z,7.53
2023-04-20T03:34:58.195Z,7.42
2023-04-20T03:37:20.747Z,7.42
2023-04-20T03:39:43.435Z,7.37
2023-04-20T03:42:06.404Z,7.33
2023-04-20T03:44:29.255Z,7.30
2023-04-20T03:46:52.285Z,7.36
2023-04-20T03:49:15.452Z,7.32
2023-04-20T03:51:38.194Z,7.46
2023-04-20T03:54:02.392Z,7.49
2023-04-20T03:56:27.316Z,7.56
2023-04-20T03:58:51.007Z,7.50
2023-04-20T04:01:18.370Z,7.42
2023-04-20T04:03:44.629Z,7.50
2023-04-20T04:06:09.527Z,7.49
2023-04-20T04:08:32.483Z,7.57
2023-04-20T04:10:55.567Z,7.64
2023-04-20T04:13:18.332Z,7.69
2023-04-20T04:15:41.428Z,7.69
2023-04-20T04:18:08.261Z,7.74
2023-04-20T04:20:32.415Z,7.83
2023-04-20T04:22:55.808Z,7.97
2023-04-20T04:25:29.811Z,8.31
2023-04-20T04:27:53.223Z,8.76
2023-04-20T04:30:16.749Z,9.29
2023-04-20T04:32:39.647Z,9.79
2023-04-20T04:35:03.640Z,10.15
2023-04-20T04:37:27.251Z,10.15
2023-04-20T04:39:51.698Z,10.41
2023-04-20T04:42:19.272Z,10.18
2023-04-20T04:44:42.890Z,10.15
2023-04-20T04:47:11.917Z,9.98
2023-04-20T04:49:35.845Z,10.08
2023-04-20T04:51:58.529Z,9.89
2023-04-20T04:54:21.445Z,9.95
2023-04-20T04:56:44.079Z,10.13
2023-04-20T04:59:06.744Z,10.31
2023-04-20T05:01:29.703Z,10.40
2023-04-20T05:03:52.446Z,10.28
2023-04-20T05:06:15.313Z,10.45
2023-04-20T05:08:38.020Z,10.63
2023-04-20T05:11:01.954Z,10.97
2023-04-20T05:13:24.665Z,11.54
2023-04-20T05:15:47.452Z,11.86
2023-04-20T05:18:10.429Z,11.86
2023-04-20T05:20:33.188Z,11.94
2023-04-20T05:22:55.887Z,11.96
2023-04-20T05:25:18.852Z,11.93
2023-04-20T05:27:41.578Z,12.03
2023-04-20T05:30:18.902Z,13.03
2023-04-20T05:32:43.004Z,14.36
2023-04-20T05:35:06.089Z,15.43
2023-04-20T05:37:28.708Z,15.96
2023-04-20T05:39:51.563Z,15.93
2023-04-20T05:42:14.432Z,16.04
2023-04-20T05:44:37.004Z,16.80
2023-04-20T05:46:59.866Z,16.83
2023-04-20T05:49:22.639Z,17.78
2023-04-20T05:51:45.454Z,18.14
2023-04-20T05:54:08.192Z,18.26
2023-04-20T05:56:31.286Z,18.34
2023-04-20T05:58:56.648Z,17.76
2023-04-20T06:01:19.811Z,17.28
2023-04-20T06:03:42.805Z,17.39
2023-04-20T06:06:07.751Z,18.17
2023-04-20T06:08:30.546Z,18.40
2023-04-20T06:10:57.229Z,19.49
2023-04-20T06:13:19.856Z,19.88
2023-04-20T06:15:42.520Z,19.85
2023-04-20T06:18:05.946Z,19.79
2023-04-20T06:20:28.736Z,19.89
2023-04-20T06:22:51.670Z,19.67
2023-04-20T06:25:15.827Z,20.08
2023-04-20T06:27:38.736Z,20.12
2023-04-20T06:30:01.504Z,20.63
2023-04-20T06:32:25.706Z,21.40
2023-04-20T06:34:48.373Z,20.73
2023-04-20T06:37:11.443Z,20.91
2023-04-20T06:39:35.759Z,19.83
2023-04-20T06:41:59.832Z,19.96
2023-04-20T06:44:23.764Z,20.43
2023-04-20T06:46:46.624Z,21.09
2023-04-20T06:49:09.405Z,20.94
2023-04-20T06:51:33.488Z,20.87
2023-04-20T06:53:56.843Z,19.96
2023-04-20T06:56:19.515Z,19.61
2023-04-20T06:58:43.417Z,18.33
2023-04-20T07:01:10.336Z,17.80
2023-04-20T07:03:35.062Z,17.87
2023-04-20T07:05:58.062Z,18.28
2023-04-20T07:08:20.800Z,18.89
2023-04-20T07:10:44.619Z,18.77
2023-04-20T07:13:10.588Z,18.93
2023-04-20T07:15:33.822Z,18.64
2023-04-20T07:17:56.657Z,19.49
2023-04-20T07:20:19.301Z,18.37
2023-04-20T07:22:42.067Z,18.52
2023-04-20T07:25:06.429Z,17.75
2023-04-20T07:27:30.108Z,17.71
2023-04-20T07:29:52.739Z,16.80
2023-04-20T07:32:15.511Z,16.86
2023-04-20T07:34:38.578Z,16.52
2023-04-20T07:37:01.826Z,16.39
2023-04-20T07:39:27.346Z,16.44
2023-04-20T07:41:50.021Z,16.75
2023-04-20T07:44:14.162Z,17.62
2023-04-20T07:46:38.002Z,17.41
2023-04-20T07:49:00.990Z,18.34
2023-04-20T07:51:25.788Z,18.55
2023-04-20T07:53:55.565Z,19.41
2023-04-20T07:56:18.887Z,19.31
2023-04-20T07:58:41.787Z,18.64
2023-04-20T08:01:05.054Z,19.83
2023-04-20T08:03:29.097Z,19.24
2023-04-20T08:05:52.438Z,19.78
2023-04-20T08:08:18.023Z,18.26
2023-04-20T08:10:41.232Z,19.23
2023-04-20T08:13:04.973Z,19.13
2023-04-20T08:15:28.090Z,19.44
2023-04-20T08:17:55.146Z,18.86
2023-04-20T08:20:19.305Z,19.17
2023-04-20T08:22:43.009Z,18.62
2023-04-20T08:25:06.124Z,18.17
2023-04-20T08:27:31.119Z,17.91
2023-04-20T08:29:54.852Z,18.16
2023-04-20T08:32:19.048Z,18.43
2023-04-20T08:34:41.690Z,18.06
2023-04-20T08:37:04.457Z,17.93
2023-04-20T08:39:27.810Z,17.63
2023-04-20T08:41:55.638Z,16.77
2023-04-20T08:44:20.610Z,16.58
2023-04-20T08:46:47.713Z,17.04
2023-04-20T08:49:13.189Z,17.11
2023-04-20T08:51:36.243Z,17.46
2023-04-20T08:54:06.382Z,17.24
2023-04-20T08:56:38.270Z,17.30
2023-04-20T08:59:04.105Z,17.45
2023-04-20T09:01:36.126Z,17.28
2023-04-20T09:04:00.893Z,17.23
2023-04-20T09:06:24.155Z,17.36
2023-04-20T09:08:47.471Z,17.49
2023-04-20T09:11:27.864Z,17.80
2023-04-20T09:14:21.410Z,17.55
2023-04-20T09:16:53.523Z,17.62
2023-04-20T09:19:24.836Z,18.00
2023-04-20T09:21:57.604Z,18.07
2023-04-20T09:24:23.422Z,18.11
2023-04-20T09:26:47.708Z,18.45
2023-04-20T09:29:21.467Z,18.47
2023-04-20T09:31:44.513Z,18.47
2023-04-20T09:34:08.506Z,18.66
2023-04-20T09:36:54.585Z,18.36
2023-04-20T09:39:20.596Z,18.43
2023-04-20T09:41:43.678Z,18.76
2023-04-20T09:44:07.354Z,18.81
2023-04-20T09:46:32.529Z,18.98
2023-04-20T09:48:56.490Z,19.17
2023-04-20T09:51:20.300Z,19.04
2023-04-20T09:54:06.236Z,18.55
2023-04-20T09:56:30.437Z,18.75
2023-04-20T09:58:54.788Z,18.76
2023-04-20T10:01:18.740Z,19.00
2023-04-20T10:03:43.304Z,19.40
2023-04-20T10:06:06.923Z,19.51
2023-04-20T10:08:41.462Z,18.98
2023-04-20T10:11:04.187Z,19.07
2023-04-20T10:13:34.141Z,19.14
2023-04-20T10:15:57.077Z,19.26
2023-04-20T10:18:23.986Z,19.44
2023-04-20T10:20:47.452Z,19.88
2023-04-20T10:23:11.632Z,20.20
2023-04-20T10:25:34.558Z,20.39
2023-04-20T10:28:00.306Z,20.57
2023-04-20T10:30:24.885Z,20.68
2023-04-20T10:32:47.705Z,20.73
2023-04-20T10:35:11.660Z,20.27
2023-04-20T10:37:51.167Z,20.57
2023-04-20T10:40:14.261Z,20.75
2023-04-20T10:42:44.640Z,20.83
2023-04-20T10:45:07.861Z,20.83
2023-04-20T10:47:32.620Z,20.51
2023-04-20T10:50:09.486Z,20.54
2023-04-20T10:52:36.835Z,20.71
2023-04-20T10:54:59.473Z,20.85
2023-04-20T10:57:22.098Z,20.87
2023-04-20T10:59:44.823Z,20.80
2023-04-20T11:02:12.974Z,20.94
2023-04-20T11:04:37.427Z,20.94
2023-04-20T11:07:11.173Z,20.91
2023-04-20T11:09:35.100Z,21.18
2023-04-20T11:12:00.181Z,21.33
2023-04-20T11:14:23.894Z,21.33
2023-04-20T11:16:52.749Z,21.29
2023-04-20T11:19:29.396Z,20.90
2023-04-20T11:21:52.174Z,21.32
2023-04-20T11:24:29.237Z,21.36
2023-04-20T11:26:57.006Z,21.23
2023-04-20T11:29:39.550Z,20.95
2023-04-20T11:32:08.642Z,21.18
2023-04-20T11:34:40.160Z,21.25
2023-04-20T11:37:31.103Z,21.18
2023-04-20T11:40:15.228Z,21.08
2023-04-20T11:42:38.095Z,20.85
2023-04-20T11:45:00.910Z,20.58
2023-04-20T11:47:24.347Z,20.68
2023-04-20T11:49:49.165Z,20.65
2023-04-20T11:52:15.315Z,20.68
2023-04-20T11:54:39.672Z,20.50
2023-04-20T11:57:02.724Z,20.22
2023-04-20T11:59:25.482Z,20.13
2023-04-20T12:01:48.439Z,20.23
2023-04-20T12:04:11.504Z,20.46
2023-04-20T12:06:34.497Z,20.75
2023-04-20T12:08:57.574Z,20.85
2023-04-20T12:11:20.430Z,21.22
2023-04-20T12:13:43.608Z,21.35
2023-04-20T12:16:06.732Z,21.26
2023-04-20T12:18:30.257Z,21.23
2023-04-20T12:20:52.919Z,21.29
2023-04-20T12:23:15.738Z,20.94
2023-04-20T12:25:38.922Z,20.92
2023-04-20T12:28:06.728Z,20.87
2023-04-20T12:30:29.635Z,21.23
2023-04-20T12:32:52.440Z,21.25
2023-04-20T12:35:15.265Z,21.50
2023-04-20T12:37:37.803Z,21.80
2023-04-20T12:40:00.670Z,21.78
2023-04-20T12:42:23.352Z,21.74
2023-04-20T12:44:46.189Z,21.83
2023-04-20T12:47:09.298Z,21.94
2023-04-20T12:49:33.718Z,22.02
2023-04-20T12:51:57.149Z,22.14
2023-04-20T12:54:20.186Z,22.24
2023-04-20T12:56:43.127Z,22.41
2023-04-20T12:59:06.163Z,22.52
2023-04-20T13:01:29.159Z,22.66
2023-04-20T13:03:52.789Z,22.22
2023-04-20T13:06:15.638Z,22.36
2023-04-20T13:08:39.072Z,22.15
2023-04-20T13:11:01.820Z,21.80
2023-04-20T13:13:24.467Z,21.39
2023-04-20T13:15:47.309Z,21.19
2023-04-20T13:18:10.376Z,20.80
2023-04-20T13:20:33.222Z,20.83
2023-04-20T13:23:01.302Z,20.37
2023-04-20T13:25:25.710Z,20.20
2023-04-20T13:27:48.795Z,20.04
2023-04-20T13:30:12.227Z,20.33
2023-04-20T13:32:36.984Z,20.27
2023-04-20T13:35:02.476Z,20.50
2023-04-20T13:37:25.392Z,20.57
2023-04-20T13:39:48.214Z,20.64
2023-04-20T13:42:11.241Z,20.84
2023-04-20T13:44:34.712Z,20.99
2023-04-20T13:46:57.487Z,21.18
2023-04-20T13:49:22.797Z,21.25
2023-04-20T13:51:46.428Z,21.25
2023-04-20T13:54:09.123Z,21.26
2023-04-20T13:56:33.488Z,21.56
2023-04-20T13:58:56.172Z,21.45
2023-04-20T14:01:19.067Z,21.66
2023-04-20T14:03:42.756Z,21.67
2023-04-20T14:06:06.009Z,21.97
2023-04-20T14:08:28.861Z,22.16
2023-04-20T14:10:52.044Z,21.98
2023-04-20T14:13:14.700Z,22.09
2023-04-20T14:15:37.781Z,21.84
2023-04-20T14:18:00.616Z,21.66
2023-04-20T14:20:23.821Z,21.50
2023-04-20T14:22:46.613Z,21.32
2023-04-20T14:25:09.949Z,21.02
2023-04-20T14:27:33.173Z,21.18
2023-04-20T14:29:56.557Z,20.91
2023-04-20T14:32:19.750Z,21.13
2023-04-20T14:34:42.626Z,21.19
2023-04-20T14:37:05.353Z,21.16
2023-04-20T14:39:28.096Z,21.21
2023-04-20T14:41:51.080Z,21.03
2023-04-20T14:44:13.712Z,20.96
2023-04-20T14:46:36.344Z,20.98
2023-04-20T14:48:59.251Z,20.77
2023-04-20T14:51:21.857Z,20.70
2023-04-20T14:53:44.995Z,20.60
2023-04-20T14:56:08.255Z,20.63
2023-04-20T14:58:31.322Z,20.53
2023-04-20T15:00:54.653Z,20.37
2023-04-20T15:03:18.120Z,20.29
2023-04-20T15:05:41.312Z,20.23
2023-04-20T15:08:04.171Z,20.15
2023-04-20T15:10:26.887Z,20.22
2023-04-20T15:12:49.796Z,20.37
2023-04-20T15:15:12.409Z,20.34
2023-04-20T15:17:35.209Z,20.34
2023-04-20T15:19:58.003Z,20.12
2023-04-20T15:22:20.812Z,20.09
2023-04-20T15:24:43.541Z,20.23
2023-04-20T15:27:07.354Z,20.33
2023-04-20T15:29:30.304Z,20.43
2023-04-20T15:31:53.104Z,20.41
2023-04-20T15:34:17.318Z,20.36
2023-04-20T15:36:41.316Z,20.22
2023-04-20T15:39:04.082Z,20.15
2023-04-20T15:41:26.743Z,20.13
2023-04-20T15:43:49.243Z,20.12
2023-04-20T15:46:12.038Z,20.06
2023-04-20T15:48:34.729Z,19.83
2023-04-20T15:50:57.753Z,19.83
2023-04-20T15:53:22.000Z,19.83
2023-04-20T15:55:45.092Z,19.86
2023-04-20T15:58:07.733Z,19.77
2023-04-20T16:00:30.412Z,19.78
2023-04-20T16:02:54.273Z,19.67
2023-04-20T16:05:17.094Z,19.67
2023-04-20T16:07:39.740Z,19.74
2023-04-20T16:10:03.117Z,19.71
2023-04-20T16:12:26.160Z,19.74
2023-04-20T16:14:49.256Z,19.82
2023-04-20T16:17:12.015Z,19.90
2023-04-20T16:19:34.839Z,20.08
2023-04-20T16:21:58.050Z,19.89
2023-04-20T16:24:21.233Z,20.00
2023-04-20T16:26:44.145Z,19.89
2023-04-20T16:29:06.958Z,19.95
2023-04-20T16:31:29.879Z,19.95
2023-04-20T16:33:52.718Z,19.88
2023-04-20T16:36:18.397Z,19.90
2023-04-20T16:38:41.541Z,19.98
2023-04-20T16:41:04.622Z,19.99
2023-04-20T16:43:27.318Z,19.93
2023-04-20T16:45:50.067Z,19.65
2023-04-20T16:48:12.761Z,19.37
2023-04-20T16:50:38.062Z,18.91
2023-04-20T16:53:01.954Z,18.48
2023-04-20T16:55:25.988Z,18.18
2023-04-20T16:57:48.845Z,18.16
2023-04-20T17:00:12.278Z,17.96
2023-04-20T17:02:36.264Z,17.93
2023-04-20T17:04:59.210Z,17.85
2023-04-20T17:07:21.842Z,17.68
2023-04-20T17:09:44.493Z,17.56
2023-04-20T17:12:08.018Z,17.53
2023-04-20T17:14:32.621Z,17.48
2023-04-20T17:16:57.296Z,17.46
2023-04-20T17:19:20.834Z,17.48
2023-04-20T17:24:08.178Z,17.36
2023-04-20T17:26:31.534Z,17.34
2023-04-20T17:28:54.245Z,17.25
2023-04-20T17:31:17.047Z,17.21
2023-04-20T17:33:39.949Z,17.18
2023-04-20T17:36:02.790Z,17.24
2023-04-20T17:38:25.916Z,17.15
2023-04-20T17:40:48.675Z,17.14
2023-04-20T17:43:11.486Z,17.17
2023-04-20T17:45:34.482Z,17.13
2023-04-20T17:47:57.480Z,17.02
2023-04-20T17:50:20.849Z,17.00
2023-04-20T17:52:43.648Z,16.91
2023-04-20T17:55:06.986Z,16.90
2023-04-20T17:57:29.840Z,16.86
2023-04-20T17:59:52.426Z,16.87
2023-04-20T18:02:16.040Z,16.81
2023-04-20T18:04:39.193Z,16.72
2023-04-20T18:07:01.999Z,16.60
2023-04-20T18:09:24.903Z,16.59
2023-04-20T18:11:47.625Z,16.45
2023-04-20T18:14:10.732Z,16.38
2023-04-20T18:16:33.679Z,16.36
2023-04-20T18:18:56.622Z,16.29
2023-04-20T18:21:19.464Z,16.15
2023-04-20T18:23:42.932Z,16.14
2023-04-20T18:26:05.665Z,16.01
2023-04-20T18:28:29.045Z,16.05
2023-04-20T18:30:51.906Z,15.98
2023-04-20T18:33:15.660Z,15.97
2023-04-20T18:35:38.563Z,15.96
2023-04-20T18:38:01.701Z,15.90
2023-04-20T18:40:24.556Z,15.89
2023-04-20T18:42:47.453Z,15.83
2023-04-20T18:45:12.346Z,15.83
2023-04-20T18:47:35.286Z,15.84
2023-04-20T18:49:58.418Z,15.87
2023-04-20T18:52:23.040Z,15.87
2023-04-20T18:54:46.907Z,15.86
2023-04-20T18:57:09.896Z,15.83
2023-04-20T18:59:32.800Z,15.77
2023-04-20T19:01:57.036Z,15.74
2023-04-20T19:04:21.199Z,15.71
2023-04-20T19:06:44.519Z,15.73
2023-04-20T19:09:08.475Z,15.69
2023-04-20T19:11:31.638Z,15.70
2023-04-20T19:13:54.789Z,15.66
2023-04-20T19:16:17.460Z,15.63
2023-04-20T19:18:40.459Z,15.71
2023-04-20T19:21:03.563Z,15.70
2023-04-20T19:23:26.565Z,15.63
2023-04-20T19:25:49.452Z,15.63
2023-04-20T19:28:12.691Z,15.53
2023-04-20T19:30:36.188Z,15.56
2023-04-20T19:33:02.305Z,15.49
2023-04-20T19:35:25.399Z,15.49
2023-04-20T19:37:48.352Z,15.42
2023-04-20T19:40:11.709Z,15.39
2023-04-20T19:42:36.878Z,15.33
2023-04-20T19:44:59.813Z,15.35
2023-04-20T19:47:22.688Z,15.33
2023-04-20T19:49:46.318Z,15.35
2023-04-20T19:52:10.316Z,15.29
2023-04-20T19:54:33.584Z,15.25
2023-04-20T19:56:57.787Z,15.29
2023-04-20T19:59:20.902Z,15.32
2023-04-20T20:01:43.911Z,15.28
2023-04-20T20:04:06.896Z,15.25
2023-04-20T20:06:29.865Z,15.21
2023-04-20T20:08:52.917Z,15.22
2023-04-20T20:11:15.881Z,15.14
2023-04-20T20:13:38.865Z,15.14
2023-04-20T20:16:02.402Z,15.09
2023-04-20T20:18:25.931Z,15.19
2023-04-20T20:20:50.544Z,15.15
2023-04-20T20:23:13.530Z,15.15
2023-04-20T20:25:36.309Z,15.28
2023-04-20T20:27:59.593Z,15.35
2023-04-20T20:30:22.343Z,15.36
2023-04-20T20:32:45.050Z,15.32
2023-04-20T20:35:11.578Z,15.26
2023-04-20T20:37:34.846Z,15.14
2023-04-20T20:39:57.750Z,15.18
2023-04-20T20:42:21.462Z,15.04
2023-04-20T20:44:44.226Z,15.01
2023-04-20T20:47:07.054Z,15.06
2023-04-20T20:49:29.748Z,15.08
2023-04-20T20:51:52.674Z,15.18
2023-04-20T20:54:15.521Z,15.24
2023-04-20T20:56:38.242Z,15.24
2023-04-20T20:59:01.096Z,15.31
2023-04-20T21:01:23.922Z,15.31
2023-04-20T21:03:49.920Z,15.35
2023-04-20T21:06:12.668Z,15.24
2023-04-20T21:08:35.618Z,15.29
2023-04-20T21:10:58.439Z,15.25
2023-04-20T21:13:22.029Z,15.25
2023-04-20T21:15:45.507Z,15.25
2023-04-20T21:18:08.221Z,15.19
2023-04-20T21:20:31.396Z,14.97
2023-04-20T21:22:54.229Z,14.87
2023-04-20T21:25:17.184Z,14.78
2023-04-20T21:27:39.957Z,14.67
2023-04-20T21:30:03.522Z,14.60
2023-04-20T21:32:26.417Z,14.40
2023-04-20T21:34:49.542Z,14.36
2023-04-20T21:37:12.326Z,14.34
2023-04-20T21:39:35.476Z,14.20
2023-04-20T21:41:59.421Z,14.12
2023-04-20T21:44:22.088Z,14.04
2023-04-20T21:46:44.741Z,13.97
2023-04-20T21:49:07.389Z,13.78
2023-04-20T21:51:30.176Z,13.81
2023-04-20T21:53:52.934Z,13.78
2023-04-20T21:56:15.744Z,13.71
2023-04-20T21:58:38.549Z,13.61
2023-04-20T22:01:01.210Z,13.48
2023-04-20T22:03:24.067Z,13.44
2023-04-20T22:05:46.743Z,13.48
2023-04-20T22:08:09.493Z,13.54
2023-04-20T22:10:33.435Z,13.51
2023-04-20T22:12:56.072Z,13.44
2023-04-20T22:15:18.738Z,13.40
2023-04-20T22:17:42.160Z,13.39
2023-04-20T22:20:08.072Z,13.33
2023-04-20T22:22:30.722Z,13.32
2023-04-20T22:24:53.258Z,13.23
2023-04-20T22:27:16.014Z,13.13
2023-04-20T22:29:38.590Z,13.22
2023-04-20T22:32:21.678Z,13.15
2023-04-20T22:35:04.748Z,13.17
2023-04-20T22:37:27.340Z,13.16
2023-04-20T22:39:50.194Z,13.16
2023-04-20T22:42:12.847Z,13.17
2023-04-20T22:44:35.422Z,13.17
2023-04-20T22:46:58.083Z,13.16
2023-04-20T22:49:21.102Z,13.16
2023-04-20T22:51:43.707Z,13.22
2023-04-20T22:54:06.314Z,13.15
2023-04-20T22:56:29.498Z,13.03
2023-04-20T22:58:52.175Z,12.96
2023-04-20T23:01:14.862Z,12.95
2023-04-20T23:03:37.597Z,12.93
2023-04-20T23:06:00.513Z,12.92
2023-04-20T23:08:25.568Z,12.88
2023-04-20T23:10:48.604Z,12.87
2023-04-20T23:13:16.605Z,12.75
2023-04-20T23:15:39.581Z,12.65
2023-04-20T23:18:02.394Z,12.60
2023-04-20T23:20:25.238Z,12.62
2023-04-20T23:22:47.810Z,12.57
2023-04-20T23:25:11.075Z,12.62
2023-04-20T23:27:33.926Z,12.48
2023-04-20T23:29:56.600Z,12.47
2023-04-20T23:32:19.239Z,12.55
2023-04-20T23:34:41.999Z,12.48
2023-04-20T23:37:04.632Z,12.42
2023-04-20T23:39:27.427Z,12.33
2023-04-20T23:41:50.072Z,12.38
2023-04-20T23:44:12.898Z,12.38
2023-04-20T23:46:35.631Z,12.48
2023-04-20T23:48:58.176Z,12.38
2023-04-20T23:51:21.225Z,12.37
2023-04-20T23:53:43.950Z,12.31
2023-04-20T23:56:06.935Z,12.33
2023-04-20T23:58:29.694Z,12.30
